EDT,Max TemperatureF,Mean TemperatureF,Min TemperatureF,Max Dew PointF,MeanDew PointF,Min DewpointF,Max Humidity, Mean Humidity, Min Humidity, Max Sea Level PressureIn, Mean Sea Level PressureIn, Min Sea Level PressureIn, Max VisibilityMiles, Mean VisibilityMiles, Min VisibilityMiles, Max Wind SpeedMPH, Mean Wind SpeedMPH, Max Gust SpeedMPH,PrecipitationIn, CloudCover, Events, WindDirDegrees
2013-7-1,84,78,73,73,73,70,100,87,66,30.06,29.96,29.89,10,8,4,17,4,26,0.00,1,,187
2013-7-2,86,80,73,77,74,72,100,92,70,30.13,30.08,30.01,10,7,3,15,1,16,0.00,1,,146
2013-7-3,89,80,71,77,74,72,100,82,59,30.17,30.12,30.09,10,8,4,16,2,23,0.00,1,,144
2013-7-4,89,81,73,75,73,70,100,78,52,30.19,30.15,30.11,10,8,5,17,4,24,0.00,1,,137
2013-7-5,89,81,73,77,73,72,100,81,55,30.19,30.16,30.11,10,7,2,16,3,26,0.00,1,,117
2013-7-6,87,80,73,75,74,72,100,81,58,30.16,30.13,30.09,10,7,4,16,3,23,0.00,1,,123
2013-7-7,89,81,73,75,73,70,100,78,52,30.17,30.14,30.09,10,8,5,16,3,20,0.00,1,,94
2013-7-8,95,84,73,81,73,70,100,73,46,30.20,30.16,30.13,10,8,3,13,2,20,0.00,0,,84
2013-7-9,93,82,71,79,72,66,100,73,41,30.21,30.16,30.11,10,8,1,12,2,18,0.00,1,,70
2013-7-10,93,82,71,79,73,70,100,76,49,30.12,30.07,30.01,10,9,2,15,1,,0.00,1,,105
2013-7-11,96,84,73,75,72,70,94,74,41,30.06,30.00,29.92,10,9,7,21,2,29,0.00,1,,195
2013-7-12,91,82,73,77,74,72,100,84,52,29.98,29.95,29.92,10,8,3,10,0,16,0.00,1,,270
2013-7-13,93,83,73,79,73,70,100,82,49,30.03,29.98,29.93,10,8,4,17,1,26,0.00,1,,151
2013-7-14,87,79,71,75,73,70,100,84,62,30.14,30.07,30.01,10,8,5,17,2,18,0.00,3,,94
2013-7-15,89,79,69,79,73,70,100,81,59,30.17,30.12,30.08,10,8,4,16,3,22,0.00,1,,68
2013-7-16,91,82,73,77,73,72,100,76,52,30.21,30.18,30.14,10,8,5,20,4,24,0.00,1,,82
2013-7-17,91,82,73,79,73,72,100,78,52,30.21,30.17,30.12,10,8,3,16,3,22,0.00,1,,73
2013-7-18,91,82,73,79,72,68,100,78,52,30.16,30.13,30.09,10,9,6,14,1,20,0.00,1,,104
2013-7-19,93,82,71,73,72,70,94,80,52,30.17,30.12,30.06,10,8,2,18,1,26,0.00,3,,167
2013-7-20,93,83,73,79,74,70,100,89,52,30.14,30.10,30.05,10,8,2,17,1,25,0.00,1,,158
2013-7-21,95,83,71,79,74,70,100,89,49,30.15,30.10,30.05,10,7,0,32,1,45,0.00,2,,213
2013-7-22,91,82,73,79,74,70,100,89,59,30.16,30.11,30.08,10,8,2,16,1,23,0.00,2,,215
2013-7-23,87,80,73,79,74,72,100,88,66,30.10,30.05,29.98,10,8,3,14,2,24,0.00,1,,235
2013-7-24,87,81,75,79,75,72,100,84,62,30.00,29.94,29.88,10,7,5,26,4,34,0.00,1,,235
2013-7-25,91,83,75,79,74,72,100,79,55,30.00,29.94,29.88,10,7,2,20,2,30,0.00,1,,248
2013-7-26,96,84,73,79,74,72,100,77,44,30.03,30.00,29.97,10,7,5,13,1,,0.00,1,,49
2013-7-27,96,86,75,82,75,73,100,80,47,30.03,29.98,29.93,10,6,0,10,0,,0.00,3,,106
2013-7-28,93,82,71,81,74,70,100,87,52,30.09,30.02,29.96,9,7,2,20,0,26,0.00,1,,199
2013-7-29,93,82,71,82,74,70,100,78,52,30.18,30.12,30.05,10,8,5,12,1,16,0.00,1,,96
2013-7-30,96,84,73,81,75,72,100,75,44,30.21,30.16,30.11,10,8,5,12,1,,0.00,1,,106
2013-7-31,96,84,73,82,74,70,100,76,44,30.16,30.11,30.04,10,7,2,12,1,23,0.00,1,,156